Data for 12/17/2012

Time Sea-Level Adjusted Pressure Absolute Pressure Temperature Relative Humidity Dew Point   
(mb) (inHg) (mb) (inHg) (C) (F) (%) (C) (F)
00:05 1004 29.65 833 24.6 -5.2 22.7 52 -13.5 7.6
00:10 1004 29.65 833 24.6 -5 22.9 52 -13.3 8
00:15 1004 29.65 833 24.6 -5.1 22.8 51 -13.7 7.4
00:20 1004 29.65 833 24.6 -4.8 23.4 50 -13.6 7.6
00:25 1004 29.65 833 24.6 -4.7 23.5 52 -13.1 8.4
00:30 1004 29.65 833 24.6 -4.8 23.3 52 -13.3 8
00:35 1004 29.65 833 24.6 -4.9 23.2 53 -13.1 8.5
00:40 1003 29.62 833 24.6 -4.9 23.1 52 -13.2 8.2
00:45 1003 29.62 833 24.6 -4.9 23.2 53 -13 8.5
00:50 1003 29.62 833 24.6 -4.9 23.2 53 -13.1 8.4
00:55 1003 29.62 833 24.6 -4.8 23.3 53 -13 8.7
01:00 1003 29.62 832 24.57 -4.7 23.5 54 -12.8 9
01:05 1003 29.62 832 24.57 -4.7 23.6 54 -12.7 9.1
01:10 1003 29.62 832 24.57 -4.5 23.9 52 -12.9 8.8
01:15 1003 29.62 832 24.57 -4.3 24.3 53 -12.5 9.4
01:20 1003 29.62 832 24.57 -4.3 24.3 55 -12.1 10.3
01:25 1003 29.62 832 24.57 -4.3 24.3 55 -12 10.5
01:30 1003 29.62 832 24.57 -4.2 24.4 56 -11.7 10.9
01:35 1003 29.62 832 24.57 -4.3 24.3 55 -11.9 10.5
01:40 1003 29.62 832 24.57 -4.1 24.6 55 -11.9 10.6
01:45 1003 29.62 832 24.57 -3.9 25 55 -11.8 10.8
01:50 1002 29.59 832 24.57 -3.8 25.2 55 -11.6 11
01:55 1002 29.59 832 24.57 -3.6 25.5 55 -11.4 11.5
02:00 1002 29.59 831 24.54 -3.6 25.5 55 -11.4 11.5
02:05 1002 29.59 831 24.54 -3.5 25.6 57 -11 12.2
02:10 1002 29.59 831 24.54 -3.7 25.4 59 -10.6 12.9
02:15 1002 29.59 831 24.54 -3.7 25.4 59 -10.5 13.1
02:20 1002 29.59 831 24.54 -3.7 25.4 60 -10.4 13.3
02:25 1002 29.59 831 24.54 -3.6 25.6 59 -10.4 13.3
02:30 1002 29.59 831 24.54 -3.5 25.6 60 -10.3 13.5
02:35 1001 29.56 831 24.54 -3.6 25.5 60 -10.3 13.4
02:40 1001 29.56 831 24.54 -3.6 25.6 60 -10.1 13.7
02:45 1001 29.56 831 24.54 -3.6 25.5 62 -9.9 14.3
02:50 1001 29.56 831 24.54 -3.6 25.6 62 -9.7 14.5
02:55 1001 29.56 830 24.51 -3.4 25.9 63 -9.5 14.9
03:00 1001 29.56 830 24.51 -3.3 26 64 -9.2 15.5
03:05 1001 29.56 830 24.51 -3.4 25.8 66 -8.9 15.9
03:10 1001 29.56 830 24.51 -3.5 25.8 67 -8.8 16.1
03:15 1001 29.56 830 24.51 -3.3 26 67 -8.6 16.4
03:20 1001 29.56 830 24.51 -3.4 26 67 -8.6 16.5
03:25 1001 29.56 830 24.51 -3.4 25.8 68 -8.6 16.6
03:30 1001 29.56 830 24.51 -3.3 26.1 66 -8.6 16.5
03:35 1001 29.56 830 24.51 -3.1 26.4 67 -8.4 16.9
03:40 1001 29.56 830 24.51 -3.2 26.2 67 -8.4 16.8
03:45 1001 29.56 830 24.51 -3.2 26.3 68 -8.3 17
03:50 1000 29.53 830 24.51 -3.1 26.4 67 -8.3 17
03:55 1000 29.53 830 24.51 -2.8 27 66 -8.2 17.2
04:00 1000 29.53 830 24.51 -2.7 27.1 66 -8.2 17.3
04:05 1000 29.53 829 24.48 -2.7 27.2 67 -8 17.6
04:10 1000 29.53 829 24.48 -2.7 27.1 67 -8.1 17.4
04:15 1000 29.53 829 24.48 -2.6 27.3 66 -8.1 17.4
04:20 1000 29.53 829 24.48 -2.6 27.3 65 -8.2 17.2
04:25 1000 29.53 829 24.48 -2.5 27.6 65 -8.1 17.4
04:30 1000 29.53 829 24.48 -2.4 27.7 66 -7.9 17.8
04:35 1000 29.53 829 24.48 -2.4 27.7 65 -8.2 17.2
04:40 1000 29.53 829 24.48 -2.2 28.1 64 -8 17.5
04:45 1000 29.53 829 24.48 -2.2 28 64 -8.2 17.3
04:50 1000 29.53 829 24.48 -2.1 28.2 63 -8.2 17.2
04:55 1000 29.53 829 24.48 -2.1 28.2 65 -7.9 17.7
05:00 1000 29.53 829 24.48 -2.2 28 64 -8.1 17.5
05:05 1000 29.53 829 24.48 -2.1 28.3 64 -7.9 17.7
05:10 999 29.5 829 24.48 -2.1 28.3 64 -7.9 17.7
05:15 999 29.5 828 24.45 -2.2 28.1 66 -7.7 18.1
05:20 999 29.5 828 24.45 -2.3 27.9 66 -7.7 18.1
05:25 999 29.5 828 24.45 -2.2 28 65 -7.9 17.8
05:30 999 29.5 828 24.45 -2.1 28.2 67 -7.5 18.5
05:35 999 29.5 828 24.45 -2.1 28.2 66 -7.5 18.5
05:40 999 29.5 828 24.45 -2 28.5 66 -7.5 18.5
05:45 998 29.47 828 24.45 -1.9 28.6 66 -7.3 18.8
05:50 999 29.5 828 24.45 -1.8 28.8 66 -7.3 18.9
05:55 998 29.47 828 24.45 -1.5 29.2 66 -7.1 19.2
06:00 998 29.47 828 24.45 -1.5 29.3 66 -7 19.4
06:05 998 29.47 827 24.42 -1.4 29.4 67 -6.7 19.9
06:10 998 29.47 827 24.42 -1.4 29.5 67 -6.7 20
06:15 998 29.47 827 24.42 -1.3 29.6 68 -6.5 20.2
06:20 998 29.47 827 24.42 -1.2 29.8 68 -6.4 20.4
06:25 998 29.47 827 24.42 -1.2 29.8 68 -6.3 20.6
06:30 998 29.47 827 24.42 -1.1 30 68 -6.3 20.6
06:35 998 29.47 827 24.42 -1 30.2 68 -6.2 20.8
06:40 998 29.47 827 24.42 -0.9 30.3 67 -6.3 20.6
06:45 998 29.47 827 24.42 -0.6 30.9 65 -6.4 20.6
06:50 998 29.47 827 24.42 -0.4 31.3 63 -6.6 20.1
06:55 998 29.47 827 24.42 -0.1 31.8 61 -6.7 19.9
07:00 998 29.47 827 24.42 0.2 32.4 61 -6.4 20.4
07:05 998 29.47 827 24.42 0.1 32.1 62 -6.5 20.4
07:10 998 29.47 827 24.42 -0.1 31.7 63 -6.5 20.4
07:15 998 29.47 827 24.42 -0.4 31.2 64 -6.4 20.4
07:20 998 29.47 827 24.42 -0.5 31.1 64 -6.5 20.3
07:25 998 29.47 827 24.42 -0.5 31.2 64 -6.5 20.3
07:30 998 29.47 827 24.42 -0.3 31.4 63 -6.5 20.3
07:35 998 29.47 827 24.42 -0.3 31.5 62 -6.6 20.1
07:40 998 29.47 827 24.42 -0.1 31.8 62 -6.4 20.5
07:45 998 29.47 827 24.42 -0.2 31.7 62 -6.5 20.3
07:50 998 29.47 827 24.42 -0 31.9 62 -6.4 20.4
07:55 998 29.47 827 24.42 -0.2 31.7 64 -6.2 20.8
08:00 998 29.47 827 24.42 -0.4 31.3 65 -6.3 20.7
08:05 998 29.47 827 24.42 -0.5 31.1 65 -6.3 20.7
08:10 998 29.47 827 24.42 -0.3 31.4 63 -6.5 20.3
08:15 998 29.47 827 24.42 -0.1 31.9 61 -6.6 20.1
08:20 998 29.47 827 24.42 0.5 32.8 60 -6.5 20.3
08:25 998 29.47 827 24.42 0.9 33.6 57 -6.7 19.9
08:30 998 29.47 827 24.42 1 33.9 57 -6.5 20.4
08:35 998 29.47 827 24.42 1.2 34.2 57 -6.5 20.3
08:40 998 29.47 827 24.42 1.3 34.4 56 -6.5 20.3
08:45 998 29.47 827 24.42 1.4 34.5 57 -6.3 20.6
08:50 998 29.47 827 24.42 1.4 34.6 55 -6.6 20.1
08:55 998 29.47 827 24.42 1.6 34.9 56 -6.4 20.5
09:00 998 29.47 827 24.42 1.4 34.5 58 -5.9 21.4
09:05 998 29.47 827 24.42 0.9 33.6 61 -5.7 21.7
09:10 998 29.47 827 24.42 0.7 33.2 61 -6 21.2
09:15 998 29.47 827 24.42 0.3 32.6 63 -5.9 21.4
09:20 998 29.47 827 24.42 -0.1 31.8 65 -5.8 21.5
09:25 998 29.47 827 24.42 -0.1 31.8 66 -5.7 21.8
09:30 998 29.47 827 24.42 -0.3 31.5 69 -5.3 22.4
09:35 999 29.5 828 24.45 -0.5 31.1 71 -5.2 22.6
09:40 998 29.47 828 24.45 -0.5 31 72 -5 23
09:45 998 29.47 827 24.42 -0.4 31.3 72 -4.8 23.4
09:50 998 29.47 828 24.45 0.3 32.6 69 -4.6 23.6
09:55 998 29.47 828 24.45 1.5 34.6 68 -3.8 25.2
10:00 998 29.47 828 24.45 1.3 34.4 68 -3.9 25
10:05 998 29.47 828 24.45 1.1 34 69 -3.9 25.1
10:10 999 29.5 828 24.45 1.1 34 69 -3.9 25
10:15 999 29.5 828 24.45 1.1 34 69 -4 24.9
10:20 999 29.5 828 24.45 1 33.8 70 -3.8 25.2
10:25 999 29.5 828 24.45 0.7 33.3 72 -3.8 25.1
10:30 999 29.5 828 24.45 0.4 32.8 73 -3.9 24.9
10:35 999 29.5 828 24.45 0.4 32.7 71 -4.3 24.3
10:40 999 29.5 828 24.45 0.6 33 73 -3.7 25.4
10:45 999 29.5 828 24.45 1.4 34.5 71 -3.4 25.9
10:50 999 29.5 828 24.45 1.7 35.1 68 -3.6 25.5
10:55 999 29.5 828 24.45 1.8 35.3 73 -2.4 27.6
11:00 999 29.5 828 24.45 1.6 34.9 75 -2.4 27.7
11:05 999 29.5 828 24.45 1.6 34.9 73 -2.7 27.1
11:10 999 29.5 828 24.45 1.8 35.2 69 -3.3 26.1
11:15 999 29.5 828 24.45 2 35.6 72 -2.5 27.5
11:20 999 29.5 828 24.45 1.9 35.4 73 -2.4 27.7
11:25 999 29.5 828 24.45 1.9 35.4 73 -2.4 27.7
11:30 999 29.5 828 24.45 2 35.7 73 -2.2 28
11:35 999 29.5 828 24.45 1.6 34.9 79 -1.6 29.1
11:40 999 29.5 828 24.45 1.1 34 80 -1.9 28.5
11:45 999 29.5 828 24.45 0.9 33.6 81 -2 28.5
11:50 999 29.5 828 24.45 0.8 33.5 81 -2.1 28.2
11:55 999 29.5 828 24.45 1 33.8 78 -2.3 27.8
12:00 999 29.5 828 24.45 1 33.8 78 -2.4 27.6
12:05 999 29.5 828 24.45 1 33.7 79 -2.3 27.8
12:10 999 29.5 828 24.45 1.1 33.9 77 -2.5 27.5
12:15 999 29.5 828 24.45 1.3 34.3 76 -2.5 27.5
12:20 999 29.5 828 24.45 1.3 34.3 76 -2.5 27.4
12:25 999 29.5 828 24.45 1.5 34.8 72 -3 26.6
12:30 999 29.5 828 24.45 1.8 35.3 68 -3.5 25.8
12:35 998 29.47 828 24.45 2.4 36.3 62 -4.1 24.7
12:40 998 29.47 828 24.45 2.8 37.1 60 -4.2 24.4
12:45 999 29.5 828 24.45 3.1 37.6 58 -4.4 24.2
12:50 999 29.5 828 24.45 3.2 37.7 58 -4.3 24.3
12:55 999 29.5 828 24.45 3.3 37.9 58 -4.3 24.2
13:00 999 29.5 828 24.45 3.2 37.7 58 -4.3 24.2
13:05 999 29.5 828 24.45 3 37.5 59 -4.2 24.4
13:10 999 29.5 828 24.45 2.9 37.3 54 -5.4 22.4
13:15 999 29.5 828 24.45 2.9 37.2 56 -5 23
13:20 999 29.5 828 24.45 2.5 36.4 62 -4.1 24.6
13:25 999 29.5 828 24.45 2.3 36.1 55 -6 21.2
13:30 999 29.5 829 24.48 2.3 36.1 62 -4.2 24.5
13:35 1000 29.53 829 24.48 1.6 35 70 -3.2 26.2
13:40 1000 29.53 829 24.48 0.8 33.5 82 -1.9 28.6
13:45 1000 29.53 829 24.48 0.2 32.4 86 -1.9 28.6
13:50 1000 29.53 829 24.48 0 32 88 -1.8 28.7
13:55 1000 29.53 829 24.48 -0 32 89 -1.7 29
14:00 1000 29.53 829 24.48 0.1 32.2 88 -1.7 29
14:05 1000 29.53 829 24.48 0.3 32.6 86 -1.7 28.9
14:10 1000 29.53 829 24.48 0.3 32.6 85 -1.9 28.5
14:15 1000 29.53 829 24.48 0.4 32.7 83 -2.2 28.1
14:20 1000 29.53 829 24.48 0.5 32.9 81 -2.4 27.7
14:25 1000 29.53 829 24.48 0.5 32.9 79 -2.6 27.2
14:30 999 29.5 829 24.48 0.6 33.1 78 -2.8 26.9
14:35 999 29.5 829 24.48 0.6 33.1 78 -2.8 26.9
14:40 999 29.5 829 24.48 0.6 33.1 79 -2.6 27.3
14:45 1000 29.53 829 24.48 0.4 32.7 78 -2.9 26.7
14:50 999 29.5 829 24.48 0.7 33.3 77 -3 26.7
14:55 999 29.5 829 24.48 0.9 33.7 75 -3 26.6
15:00 999 29.5 829 24.48 1.2 34.2 72 -3.3 26
15:05 1000 29.53 829 24.48 1.6 34.9 68 -3.6 25.5
15:10 1000 29.53 829 24.48 1.8 35.2 67 -3.6 25.4
15:15 1000 29.53 829 24.48 1.7 35.1 73 -2.6 27.4
15:20 1000 29.53 829 24.48 1.2 34.2 75 -2.7 27.2
15:25 1000 29.53 829 24.48 1 33.8 69 -4.1 24.6
15:30 999 29.5 829 24.48 1 33.8 66 -4.6 23.7
15:35 999 29.5 829 24.48 1.1 34 62 -5.3 22.4
15:40 1000 29.53 829 24.48 1 33.8 68 -4.3 24.3
15:45 1000 29.53 829 24.48 0.5 32.9 77 -3.1 26.5
15:50 1000 29.53 829 24.48 -0 32 78 -3.3 26
15:55 1000 29.53 829 24.48 -0.1 31.8 81 -3 26.5
16:00 1000 29.53 829 24.48 -0.3 31.5 84 -2.7 27.1
16:05 1000 29.53 829 24.48 -0.4 31.3 84 -2.8 27
16:10 1000 29.53 829 24.48 -0.3 31.4 83 -2.9 26.8
16:15 1000 29.53 829 24.48 -0 31.9 81 -2.9 26.8
16:20 1000 29.53 829 24.48 0.3 32.5 80 -2.8 26.9
16:25 1000 29.53 829 24.48 0.4 32.8 79 -2.8 27
16:30 1000 29.53 829 24.48 0.3 32.6 80 -2.8 27
16:35 1000 29.53 829 24.48 0.1 32.1 80 -3 26.6
16:40 1000 29.53 829 24.48 0.1 32.1 79 -3.1 26.4
16:45 1001 29.56 830 24.51 -0 32 81 -2.8 26.9
16:50 1000 29.53 830 24.51 -0.3 31.5 79 -3.5 25.8
16:55 1000 29.53 830 24.51 -0.3 31.5 77 -3.8 25.2
17:00 1000 29.53 830 24.51 -0.2 31.7 71 -4.9 23.2
17:05 1000 29.53 829 24.48 -0.2 31.7 66 -5.7 21.7
17:10 1000 29.53 830 24.51 -0.4 31.4 66 -6 21.2
17:15 1000 29.53 829 24.48 -0.2 31.7 66 -5.7 21.7
17:20 1001 29.56 830 24.51 -0.4 31.2 78 -3.8 25.1
17:25 1001 29.56 830 24.51 -1.1 30 83 -3.7 25.3
17:30 1001 29.56 830 24.51 -1.2 29.8 82 -3.9 25
17:35 1001 29.56 830 24.51 -1 30.3 78 -4.3 24.3
17:40 1001 29.56 830 24.51 -0.7 30.8 77 -4.2 24.4
17:45 1001 29.56 830 24.51 -0.7 30.8 76 -4.4 24.1
17:50 1001 29.56 830 24.51 -0.7 30.8 74 -4.8 23.4
17:55 1001 29.56 830 24.51 -0.5 31.2 72 -4.8 23.3
18:00 1001 29.56 830 24.51 -0.3 31.4 67 -5.7 21.7
18:05 1001 29.56 830 24.51 -0.2 31.7 67 -5.5 22.1
18:10 1001 29.56 830 24.51 -0.6 31 71 -5.1 22.8
18:15 1001 29.56 830 24.51 -0.9 30.3 75 -4.8 23.3
18:20 1001 29.56 830 24.51 -0.9 30.3 70 -5.7 21.7
18:25 1001 29.56 830 24.51 -1 30.3 72 -5.3 22.4
18:30 1001 29.56 830 24.51 -1.2 29.8 72 -5.7 21.8
18:35 1001 29.56 830 24.51 -1.3 29.7 69 -6.3 20.7
18:40 1001 29.56 830 24.51 -1.1 30 66 -6.7 19.9
18:45 1001 29.56 831 24.54 -1 30.2 68 -6.2 20.9
18:50 1001 29.56 831 24.54 -1 30.3 71 -5.7 21.8
18:55 1001 29.56 831 24.54 -1.1 30 74 -5.1 22.8
19:00 1002 29.59 831 24.54 -1.3 29.7 73 -5.5 22.1
19:05 1002 29.59 831 24.54 -1.1 30 72 -5.5 22.1
19:10 1002 29.59 831 24.54 -1 30.3 71 -5.5 22
19:15 1002 29.59 831 24.54 -0.9 30.4 70 -5.7 21.7
19:20 1002 29.59 831 24.54 -0.8 30.5 69 -5.8 21.5
19:25 1002 29.59 831 24.54 -0.8 30.5 69 -5.8 21.6
19:30 1002 29.59 831 24.54 -0.8 30.5 68 -6 21.2
19:35 1002 29.59 831 24.54 -0.7 30.7 67 -6.2 20.9
19:40 1002 29.59 831 24.54 -0.8 30.5 69 -5.7 21.7
19:45 1002 29.59 831 24.54 -1 30.1 70 -5.9 21.4
19:50 1002 29.59 831 24.54 -1.1 30 69 -6 21.2
19:55 1002 29.59 831 24.54 -1 30.1 70 -5.8 21.6
20:00 1002 29.59 831 24.54 -1 30.1 70 -5.9 21.4
20:05 1002 29.59 831 24.54 -1.1 30.1 69 -6.1 21
20:10 1002 29.59 831 24.54 -1.1 30.1 70 -5.9 21.3
20:15 1002 29.59 831 24.54 -1.1 29.9 69 -6.2 20.8
20:20 1002 29.59 832 24.57 -1.1 30 68 -6.2 20.8
20:25 1003 29.62 832 24.57 -1.1 30 68 -6.3 20.6
20:30 1003 29.62 832 24.57 -1.2 29.9 68 -6.3 20.7
20:35 1003 29.62 832 24.57 -1.3 29.6 68 -6.5 20.2
20:40 1003 29.62 832 24.57 -1.3 29.7 67 -6.6 20.1
20:45 1003 29.62 832 24.57 -1.3 29.7 65 -6.9 19.5
20:50 1003 29.62 832 24.57 -1.2 29.8 65 -7 19.4
20:55 1003 29.62 832 24.57 -1.3 29.7 58 -8.4 16.8
21:00 1003 29.62 832 24.57 -1.1 29.9 57 -8.6 16.5
21:05 1003 29.62 832 24.57 -1 30.2 58 -8.3 17.1
21:10 1003 29.62 833 24.6 -1 30.2 57 -8.6 16.6
21:15 1003 29.62 833 24.6 -1.1 30 57 -8.6 16.6
21:20 1004 29.65 833 24.6 -1.2 29.8 57 -8.8 16.2
21:25 1004 29.65 833 24.6 -1.3 29.7 58 -8.4 16.8
21:30 1004 29.65 833 24.6 -1.6 29.1 63 -7.8 18
21:35 1004 29.65 833 24.6 -1.9 28.5 65 -7.6 18.3
21:40 1004 29.65 833 24.6 -2.1 28.2 68 -7.3 18.8
21:45 1004 29.65 833 24.6 -2.3 27.9 67 -7.5 18.4
21:50 1004 29.65 833 24.6 -2.2 28.1 67 -7.5 18.6
21:55 1004 29.65 833 24.6 -2 28.4 68 -7.2 19
22:00 1004 29.65 833 24.6 -2 28.3 68 -7.2 19.1
22:05 1004 29.65 833 24.6 -2 28.5 65 -7.8 18
22:10 1004 29.65 833 24.6 -2 28.5 63 -8 17.6
22:15 1004 29.65 833 24.6 -2 28.3 64 -8 17.6
22:20 1004 29.65 833 24.6 -2.2 28.1 63 -8.2 17.2
22:25 1004 29.65 833 24.6 -2.2 28 62 -8.5 16.7
22:30 1004 29.65 833 24.6 -2.2 28 60 -9 15.8
22:35 1004 29.65 834 24.63 -2.1 28.2 59 -9.2 15.4
22:40 1004 29.65 834 24.63 -2.1 28.2 59 -9.1 15.6
22:45 1004 29.65 834 24.63 -2.2 28 58 -9.5 14.9
22:50 1004 29.65 834 24.63 -2.2 28 57 -9.6 14.6
22:55 1004 29.65 834 24.63 -2.2 28 54 -10.3 13.5
23:00 1004 29.65 834 24.63 -2.2 28 52 -10.9 12.5
23:05 1004 29.65 834 24.63 -2.2 28 50 -11.3 11.7
23:10 1004 29.65 834 24.63 -2.2 28.1 51 -11.1 12
23:15 1004 29.65 834 24.63 -2.2 28.1 48 -11.6 11
23:20 1005 29.68 834 24.63 -2.1 28.1 48 -11.8 10.8
23:25 1005 29.68 834 24.63 -2.2 28.1 47 -11.9 10.5
23:30 1005 29.68 834 24.63 -2.2 28 47 -12 10.3
23:35 1005 29.68 834 24.63 -2.2 28 47 -12.2 10
23:40 1005 29.68 834 24.63 -2.2 28 47 -12.1 10.2
23:45 1005 29.68 834 24.63 -2.3 27.8 48 -12 10.5
23:50 1005 29.68 834 24.63 -2.4 27.6 47 -12.2 10.1
23:55 1005 29.68 834 24.63 -2.5 27.4 47 -12.2 10
24:00 1005 29.68 834 24.63 -2.6 27.3 49 -11.9 10.6